sensor_id;sensor_type;location;lat;lon;timestamp;temperature;humidity
20400;DHT22;10359;53.596;22.520;2023-01-10T00:02:26;5.70;1.00
20400;DHT22;10359;53.596;22.520;2023-01-10T00:04:57;5.70;1.00
20400;DHT22;10359;53.596;22.520;2023-01-10T00:07:26;5.70;1.00
20400;DHT22;10359;53.596;22.520;2023-01-10T00:09:55;5.60;1.00
20400;DHT22;10359;53.596;22.520;2023-01-10T00:12:24;5.60;1.00
20400;DHT22;10359;53.596;22.520;2023-01-10T00:15:10;5.60;1.00
20400;DHT22;10359;53.596;22.520;2023-01-10T00:17:39;5.70;1.00
20400;DHT22;10359;53.596;22.520;2023-01-10T00:20:11;5.80;1.00
20400;DHT22;10359;53.596;22.520;2023-01-10T00:22:40;5.70;1.00
20400;DHT22;10359;53.596;22.520;2023-01-10T00:25:10;5.70;1.00
20400;DHT22;10359;53.596;22.520;2023-01-10T00:27:39;5.70;1.00
20400;DHT22;10359;53.596;22.520;2023-01-10T00:30:09;5.80;1.00
20400;DHT22;10359;53.596;22.520;2023-01-10T00:32:41;5.70;1.00
20400;DHT22;10359;53.596;22.520;2023-01-10T00:35:12;5.70;1.00
20400;DHT22;10359;53.596;22.520;2023-01-10T00:37:41;5.70;1.00
20400;DHT22;10359;53.596;22.520;2023-01-10T00:40:11;5.80;1.00
20400;DHT22;10359;53.596;22.520;2023-01-10T00:42:41;5.80;1.00
20400;DHT22;10359;53.596;22.520;2023-01-10T00:45:27;5.70;1.00
20400;DHT22;10359;53.596;22.520;2023-01-10T00:47:56;5.70;1.00
20400;DHT22;10359;53.596;22.520;2023-01-10T00:50:26;5.70;1.00
20400;DHT22;10359;53.596;22.520;2023-01-10T00:52:56;5.70;1.00
20400;DHT22;10359;53.596;22.520;2023-01-10T00:55:25;5.70;1.00
20400;DHT22;10359;53.596;22.520;2023-01-10T00:57:55;5.70;1.00
20400;DHT22;10359;53.596;22.520;2023-01-10T01:00:25;5.70;1.00
20400;DHT22;10359;53.596;22.520;2023-01-10T01:02:54;5.70;1.00
20400;DHT22;10359;53.596;22.520;2023-01-10T01:05:25;5.70;1.00
20400;DHT22;10359;53.596;22.520;2023-01-10T01:07:55;5.70;1.00
20400;DHT22;10359;53.596;22.520;2023-01-10T01:10:24;5.70;1.00
20400;DHT22;10359;53.596;22.520;2023-01-10T01:12:58;5.70;1.00
20400;DHT22;10359;53.596;22.520;2023-01-10T01:15:27;5.80;1.00
20400;DHT22;10359;53.596;22.520;2023-01-10T01:17:57;5.80;1.00
20400;DHT22;10359;53.596;22.520;2023-01-10T01:20:27;5.80;1.00
20400;DHT22;10359;53.596;22.520;2023-01-10T01:22:57;5.70;1.00
20400;DHT22;10359;53.596;22.520;2023-01-10T01:25:27;5.80;1.00
20400;DHT22;10359;53.596;22.520;2023-01-10T01:27:56;5.70;1.00
20400;DHT22;10359;53.596;22.520;2023-01-10T01:30:25;5.80;1.00
20400;DHT22;10359;53.596;22.520;2023-01-10T01:32:55;5.70;1.00
20400;DHT22;10359;53.596;22.520;2023-01-10T01:35:24;5.80;1.00
20400;DHT22;10359;53.596;22.520;2023-01-10T01:37:55;5.80;1.00
20400;DHT22;10359;53.596;22.520;2023-01-10T01:40:24;5.80;1.00
20400;DHT22;10359;53.596;22.520;2023-01-10T01:42:54;5.80;1.00
20400;DHT22;10359;53.596;22.520;2023-01-10T01:45:35;5.90;1.00
20400;DHT22;10359;53.596;22.520;2023-01-10T01:48:15;5.90;1.00
20400;DHT22;10359;53.596;22.520;2023-01-10T01:50:49;5.90;1.00
20400;DHT22;10359;53.596;22.520;2023-01-10T01:53:25;5.90;1.00
20400;DHT22;10359;53.596;22.520;2023-01-10T01:55:58;5.90;1.00
20400;DHT22;10359;53.596;22.520;2023-01-10T01:58:31;5.90;1.00
20400;DHT22;10359;53.596;22.520;2023-01-10T02:01:02;5.80;1.00
20400;DHT22;10359;53.596;22.520;2023-01-10T02:03:32;5.80;1.00
20400;DHT22;10359;53.596;22.520;2023-01-10T02:06:01;5.90;1.00
20400;DHT22;10359;53.596;22.520;2023-01-10T02:08:32;5.80;1.00
20400;DHT22;10359;53.596;22.520;2023-01-10T02:13:45;5.80;1.00
20400;DHT22;10359;53.596;22.520;2023-01-10T02:16:15;5.90;1.00
20400;DHT22;10359;53.596;22.520;2023-01-10T02:18:52;5.80;1.00
20400;DHT22;10359;53.596;22.520;2023-01-10T02:21:57;5.80;1.00
20400;DHT22;10359;53.596;22.520;2023-01-10T02:27:46;5.70;1.00
20400;DHT22;10359;53.596;22.520;2023-01-10T02:30:43;5.80;1.00
20400;DHT22;10359;53.596;22.520;2023-01-10T02:33:21;5.80;1.00
20400;DHT22;10359;53.596;22.520;2023-01-10T02:36:27;5.80;1.00
20400;DHT22;10359;53.596;22.520;2023-01-10T02:39:03;5.80;1.00
20400;DHT22;10359;53.596;22.520;2023-01-10T02:41:41;5.70;1.00
20400;DHT22;10359;53.596;22.520;2023-01-10T02:44:18;5.80;1.00
20400;DHT22;10359;53.596;22.520;2023-01-10T02:46:50;5.90;1.00
20400;DHT22;10359;53.596;22.520;2023-01-10T02:49:21;5.80;1.00
20400;DHT22;10359;53.596;22.520;2023-01-10T02:51:50;5.80;1.00
20400;DHT22;10359;53.596;22.520;2023-01-10T02:54:21;5.90;1.00
20400;DHT22;10359;53.596;22.520;2023-01-10T02:57:19;5.90;1.00
20400;DHT22;10359;53.596;22.520;2023-01-10T03:00:19;5.90;1.00
20400;DHT22;10359;53.596;22.520;2023-01-10T03:06:16;5.90;1.00
20400;DHT22;10359;53.596;22.520;2023-01-10T03:08:50;5.90;1.00
20400;DHT22;10359;53.596;22.520;2023-01-10T03:11:22;6.00;1.00
20400;DHT22;10359;53.596;22.520;2023-01-10T03:14:14;6.00;1.00
20400;DHT22;10359;53.596;22.520;2023-01-10T03:16:46;6.00;1.00
20400;DHT22;10359;53.596;22.520;2023-01-10T03:19:19;6.00;1.00
20400;DHT22;10359;53.596;22.520;2023-01-10T03:21:54;6.10;1.00
20400;DHT22;10359;53.596;22.520;2023-01-10T03:24:27;6.10;1.00
20400;DHT22;10359;53.596;22.520;2023-01-10T03:27:02;6.10;1.00
20400;DHT22;10359;53.596;22.520;2023-01-10T03:29:38;6.10;1.00
20400;DHT22;10359;53.596;22.520;2023-01-10T03:32:11;6.10;1.00
20400;DHT22;10359;53.596;22.520;2023-01-10T03:34:42;6.10;1.00
20400;DHT22;10359;53.596;22.520;2023-01-10T03:37:16;6.20;1.00
20400;DHT22;10359;53.596;22.520;2023-01-10T03:39:52;6.20;1.00
20400;DHT22;10359;53.596;22.520;2023-01-10T03:42:28;6.20;1.00
20400;DHT22;10359;53.596;22.520;2023-01-10T03:45:22;6.20;1.00
20400;DHT22;10359;53.596;22.520;2023-01-10T03:47:53;6.20;1.00
20400;DHT22;10359;53.596;22.520;2023-01-10T03:50:26;6.20;1.00
20400;DHT22;10359;53.596;22.520;2023-01-10T03:52:57;6.20;1.00
20400;DHT22;10359;53.596;22.520;2023-01-10T03:55:27;6.20;1.00
20400;DHT22;10359;53.596;22.520;2023-01-10T03:57:56;6.20;1.00
20400;DHT22;10359;53.596;22.520;2023-01-10T04:00:25;6.20;1.00
20400;DHT22;10359;53.596;22.520;2023-01-10T04:02:54;6.10;1.00
20400;DHT22;10359;53.596;22.520;2023-01-10T04:05:24;6.10;1.00
20400;DHT22;10359;53.596;22.520;2023-01-10T04:07:53;6.10;1.00
20400;DHT22;10359;53.596;22.520;2023-01-10T04:10:24;6.10;1.00
20400;DHT22;10359;53.596;22.520;2023-01-10T04:12:58;6.10;1.00
20400;DHT22;10359;53.596;22.520;2023-01-10T04:15:29;6.10;1.00
20400;DHT22;10359;53.596;22.520;2023-01-10T04:17:58;6.00;1.00
20400;DHT22;10359;53.596;22.520;2023-01-10T04:20:27;6.10;1.00
20400;DHT22;10359;53.596;22.520;2023-01-10T04:22:56;6.00;1.00
20400;DHT22;10359;53.596;22.520;2023-01-10T04:25:27;6.00;1.00
20400;DHT22;10359;53.596;22.520;2023-01-10T04:27:56;6.00;1.00
20400;DHT22;10359;53.596;22.520;2023-01-10T04:30:25;6.00;1.00
20400;DHT22;10359;53.596;22.520;2023-01-10T04:32:54;5.90;1.00
20400;DHT22;10359;53.596;22.520;2023-01-10T04:35:23;6.00;1.00
20400;DHT22;10359;53.596;22.520;2023-01-10T04:37:52;6.00;1.00
20400;DHT22;10359;53.596;22.520;2023-01-10T04:40:21;6.00;1.00
20400;DHT22;10359;53.596;22.520;2023-01-10T04:42:51;6.00;1.00
20400;DHT22;10359;53.596;22.520;2023-01-10T04:45:20;6.00;1.00
20400;DHT22;10359;53.596;22.520;2023-01-10T04:47:50;6.00;1.00
20400;DHT22;10359;53.596;22.520;2023-01-10T04:50:19;6.00;1.00
20400;DHT22;10359;53.596;22.520;2023-01-10T04:52:48;5.90;1.00
20400;DHT22;10359;53.596;22.520;2023-01-10T04:55:17;5.90;1.00
20400;DHT22;10359;53.596;22.520;2023-01-10T04:57:46;6.00;1.00
20400;DHT22;10359;53.596;22.520;2023-01-10T05:00:17;6.00;1.00
20400;DHT22;10359;53.596;22.520;2023-01-10T05:02:46;6.00;1.00
20400;DHT22;10359;53.596;22.520;2023-01-10T05:05:15;6.00;1.00
20400;DHT22;10359;53.596;22.520;2023-01-10T05:07:45;6.10;1.00
20400;DHT22;10359;53.596;22.520;2023-01-10T05:10:15;6.00;1.00
20400;DHT22;10359;53.596;22.520;2023-01-10T05:12:45;6.00;1.00
20400;DHT22;10359;53.596;22.520;2023-01-10T05:15:14;6.00;1.00
20400;DHT22;10359;53.596;22.520;2023-01-10T05:17:44;6.00;1.00
20400;DHT22;10359;53.596;22.520;2023-01-10T05:20:13;6.00;1.00
20400;DHT22;10359;53.596;22.520;2023-01-10T05:22:42;6.00;1.00
20400;DHT22;10359;53.596;22.520;2023-01-10T05:25:12;6.00;1.00
20400;DHT22;10359;53.596;22.520;2023-01-10T05:27:41;6.00;1.00
20400;DHT22;10359;53.596;22.520;2023-01-10T05:30:12;5.90;1.00
20400;DHT22;10359;53.596;22.520;2023-01-10T05:32:41;5.90;1.00
20400;DHT22;10359;53.596;22.520;2023-01-10T05:35:11;5.90;1.00
20400;DHT22;10359;53.596;22.520;2023-01-10T05:37:40;5.80;1.00
20400;DHT22;10359;53.596;22.520;2023-01-10T05:40:10;5.80;1.00
20400;DHT22;10359;53.596;22.520;2023-01-10T05:42:40;5.90;1.00
20400;DHT22;10359;53.596;22.520;2023-01-10T05:45:10;5.90;1.00
20400;DHT22;10359;53.596;22.520;2023-01-10T05:47:39;5.90;1.00
20400;DHT22;10359;53.596;22.520;2023-01-10T05:50:11;5.90;1.00
20400;DHT22;10359;53.596;22.520;2023-01-10T05:52:40;5.90;1.00
20400;DHT22;10359;53.596;22.520;2023-01-10T05:55:09;5.90;1.00
20400;DHT22;10359;53.596;22.520;2023-01-10T05:57:38;5.80;1.00
20400;DHT22;10359;53.596;22.520;2023-01-10T06:00:08;5.80;1.00
20400;DHT22;10359;53.596;22.520;2023-01-10T06:02:37;5.80;1.00
20400;DHT22;10359;53.596;22.520;2023-01-10T06:05:08;5.80;1.00
20400;DHT22;10359;53.596;22.520;2023-01-10T06:07:38;5.90;1.00
20400;DHT22;10359;53.596;22.520;2023-01-10T06:10:08;5.80;1.00
20400;DHT22;10359;53.596;22.520;2023-01-10T06:12:38;5.80;1.00
20400;DHT22;10359;53.596;22.520;2023-01-10T06:15:08;5.80;1.00
20400;DHT22;10359;53.596;22.520;2023-01-10T06:17:37;5.80;1.00
20400;DHT22;10359;53.596;22.520;2023-01-10T06:20:08;5.80;1.00
20400;DHT22;10359;53.596;22.520;2023-01-10T06:22:40;5.80;1.00
20400;DHT22;10359;53.596;22.520;2023-01-10T06:25:10;5.80;1.00
20400;DHT22;10359;53.596;22.520;2023-01-10T06:27:40;5.80;1.00
20400;DHT22;10359;53.596;22.520;2023-01-10T06:30:12;5.80;1.00
20400;DHT22;10359;53.596;22.520;2023-01-10T06:32:42;5.70;1.00
20400;DHT22;10359;53.596;22.520;2023-01-10T06:35:11;5.70;1.00
20400;DHT22;10359;53.596;22.520;2023-01-10T06:37:41;5.70;1.00
20400;DHT22;10359;53.596;22.520;2023-01-10T06:40:11;5.80;1.00
20400;DHT22;10359;53.596;22.520;2023-01-10T06:42:40;5.80;1.00
20400;DHT22;10359;53.596;22.520;2023-01-10T06:45:10;5.80;1.00
20400;DHT22;10359;53.596;22.520;2023-01-10T06:47:39;5.80;1.00
20400;DHT22;10359;53.596;22.520;2023-01-10T06:50:10;5.80;1.00
20400;DHT22;10359;53.596;22.520;2023-01-10T06:52:41;5.80;1.00
20400;DHT22;10359;53.596;22.520;2023-01-10T06:55:10;5.80;1.00
20400;DHT22;10359;53.596;22.520;2023-01-10T06:57:39;5.60;1.00
20400;DHT22;10359;53.596;22.520;2023-01-10T07:00:09;5.60;1.00
20400;DHT22;10359;53.596;22.520;2023-01-10T07:02:38;5.60;1.00
20400;DHT22;10359;53.596;22.520;2023-01-10T07:05:07;5.60;1.00
20400;DHT22;10359;53.596;22.520;2023-01-10T07:07:37;5.60;1.00
20400;DHT22;10359;53.596;22.520;2023-01-10T07:10:09;5.60;1.00
20400;DHT22;10359;53.596;22.520;2023-01-10T07:12:38;5.60;1.00
20400;DHT22;10359;53.596;22.520;2023-01-10T07:15:08;5.70;1.00
20400;DHT22;10359;53.596;22.520;2023-01-10T07:17:38;5.60;1.00
20400;DHT22;10359;53.596;22.520;2023-01-10T07:20:08;5.60;1.00
20400;DHT22;10359;53.596;22.520;2023-01-10T07:22:47;5.60;1.00
20400;DHT22;10359;53.596;22.520;2023-01-10T07:25:52;5.50;1.00
20400;DHT22;10359;53.596;22.520;2023-01-10T07:28:21;5.60;1.00
20400;DHT22;10359;53.596;22.520;2023-01-10T07:30:50;5.60;1.00
20400;DHT22;10359;53.596;22.520;2023-01-10T07:33:19;5.70;1.00
20400;DHT22;10359;53.596;22.520;2023-01-10T07:35:48;5.70;1.00
20400;DHT22;10359;53.596;22.520;2023-01-10T07:38:17;5.70;1.00
20400;DHT22;10359;53.596;22.520;2023-01-10T07:40:46;5.80;1.00
20400;DHT22;10359;53.596;22.520;2023-01-10T07:43:17;5.80;1.00
20400;DHT22;10359;53.596;22.520;2023-01-10T07:45:46;5.80;1.00
20400;DHT22;10359;53.596;22.520;2023-01-10T07:48:15;5.80;1.00
20400;DHT22;10359;53.596;22.520;2023-01-10T07:50:44;5.80;1.00
20400;DHT22;10359;53.596;22.520;2023-01-10T07:53:13;5.80;1.00
20400;DHT22;10359;53.596;22.520;2023-01-10T07:55:42;5.90;1.00
20400;DHT22;10359;53.596;22.520;2023-01-10T07:58:12;5.90;1.00
20400;DHT22;10359;53.596;22.520;2023-01-10T08:00:42;5.80;1.00
20400;DHT22;10359;53.596;22.520;2023-01-10T08:03:12;5.80;1.00
20400;DHT22;10359;53.596;22.520;2023-01-10T08:05:41;5.80;1.00
20400;DHT22;10359;53.596;22.520;2023-01-10T08:08:11;5.80;1.00
20400;DHT22;10359;53.596;22.520;2023-01-10T08:10:41;5.80;1.00
20400;DHT22;10359;53.596;22.520;2023-01-10T08:13:10;5.90;1.00
20400;DHT22;10359;53.596;22.520;2023-01-10T08:15:46;5.90;1.00
20400;DHT22;10359;53.596;22.520;2023-01-10T08:18:16;6.00;1.00
20400;DHT22;10359;53.596;22.520;2023-01-10T08:20:47;6.00;1.00
20400;DHT22;10359;53.596;22.520;2023-01-10T08:23:17;6.00;1.00
20400;DHT22;10359;53.596;22.520;2023-01-10T08:25:46;6.00;1.00
20400;DHT22;10359;53.596;22.520;2023-01-10T08:28:16;6.00;1.00
20400;DHT22;10359;53.596;22.520;2023-01-10T08:30:47;6.10;1.00
20400;DHT22;10359;53.596;22.520;2023-01-10T08:33:16;6.10;1.00
20400;DHT22;10359;53.596;22.520;2023-01-10T08:35:45;6.20;1.00
20400;DHT22;10359;53.596;22.520;2023-01-10T08:38:15;6.20;1.00
20400;DHT22;10359;53.596;22.520;2023-01-10T08:40:44;6.20;1.00
20400;DHT22;10359;53.596;22.520;2023-01-10T08:43:13;6.30;1.00
20400;DHT22;10359;53.596;22.520;2023-01-10T08:45:42;6.30;1.00
20400;DHT22;10359;53.596;22.520;2023-01-10T08:48:13;6.30;1.00
20400;DHT22;10359;53.596;22.520;2023-01-10T08:50:42;6.30;99.90
20400;DHT22;10359;53.596;22.520;2023-01-10T08:53:11;6.40;1.00
20400;DHT22;10359;53.596;22.520;2023-01-10T08:55:41;6.40;1.00
20400;DHT22;10359;53.596;22.520;2023-01-10T08:58:10;6.40;1.00
20400;DHT22;10359;53.596;22.520;2023-01-10T09:00:39;6.50;1.00
20400;DHT22;10359;53.596;22.520;2023-01-10T09:03:08;6.50;1.00
20400;DHT22;10359;53.596;22.520;2023-01-10T09:05:39;6.60;1.00
20400;DHT22;10359;53.596;22.520;2023-01-10T09:08:09;6.60;1.00
20400;DHT22;10359;53.596;22.520;2023-01-10T09:10:38;6.60;1.00
20400;DHT22;10359;53.596;22.520;2023-01-10T09:13:08;6.60;1.00
20400;DHT22;10359;53.596;22.520;2023-01-10T09:15:37;6.60;1.00
20400;DHT22;10359;53.596;22.520;2023-01-10T09:18:06;6.70;1.00
20400;DHT22;10359;53.596;22.520;2023-01-10T09:20:39;6.70;1.00
20400;DHT22;10359;53.596;22.520;2023-01-10T09:23:11;6.70;1.00
20400;DHT22;10359;53.596;22.520;2023-01-10T09:25:44;6.70;1.00
20400;DHT22;10359;53.596;22.520;2023-01-10T09:28:13;6.70;1.00
20400;DHT22;10359;53.596;22.520;2023-01-10T09:30:43;6.70;1.00
20400;DHT22;10359;53.596;22.520;2023-01-10T09:33:12;6.70;1.00
20400;DHT22;10359;53.596;22.520;2023-01-10T09:35:43;6.70;1.00
20400;DHT22;10359;53.596;22.520;2023-01-10T09:38:14;6.70;1.00
20400;DHT22;10359;53.596;22.520;2023-01-10T09:40:54;6.80;1.00
20400;DHT22;10359;53.596;22.520;2023-01-10T09:43:35;6.80;1.00
20400;DHT22;10359;53.596;22.520;2023-01-10T09:46:10;6.80;1.00
20400;DHT22;10359;53.596;22.520;2023-01-10T09:48:43;6.80;1.00
20400;DHT22;10359;53.596;22.520;2023-01-10T09:51:29;6.70;1.00
20400;DHT22;10359;53.596;22.520;2023-01-10T09:54:05;6.70;1.00
20400;DHT22;10359;53.596;22.520;2023-01-10T09:56:39;6.80;1.00
20400;DHT22;10359;53.596;22.520;2023-01-10T09:59:14;6.80;1.00
20400;DHT22;10359;53.596;22.520;2023-01-10T10:01:44;6.90;1.00
20400;DHT22;10359;53.596;22.520;2023-01-10T10:04:22;6.80;1.00
20400;DHT22;10359;53.596;22.520;2023-01-10T10:06:53;6.80;1.00
20400;DHT22;10359;53.596;22.520;2023-01-10T10:09:24;6.80;1.00
20400;DHT22;10359;53.596;22.520;2023-01-10T10:12:13;6.90;1.00
20400;DHT22;10359;53.596;22.520;2023-01-10T10:14:56;6.80;1.00
20400;DHT22;10359;53.596;22.520;2023-01-10T10:17:39;6.80;1.00
20400;DHT22;10359;53.596;22.520;2023-01-10T10:20:25;6.80;1.00
20400;DHT22;10359;53.596;22.520;2023-01-10T10:23:17;6.80;1.00
20400;DHT22;10359;53.596;22.520;2023-01-10T10:25:56;6.90;1.00
20400;DHT22;10359;53.596;22.520;2023-01-10T10:28:49;6.90;1.00
20400;DHT22;10359;53.596;22.520;2023-01-10T10:31:39;6.90;1.00
20400;DHT22;10359;53.596;22.520;2023-01-10T10:34:15;7.00;1.00
20400;DHT22;10359;53.596;22.520;2023-01-10T10:36:50;7.00;1.00
20400;DHT22;10359;53.596;22.520;2023-01-10T10:39:27;7.10;1.00
20400;DHT22;10359;53.596;22.520;2023-01-10T10:41:59;7.10;1.00
20400;DHT22;10359;53.596;22.520;2023-01-10T10:44:32;7.10;1.00
20400;DHT22;10359;53.596;22.520;2023-01-10T10:47:12;7.10;1.00
20400;DHT22;10359;53.596;22.520;2023-01-10T10:49:46;7.10;1.00
20400;DHT22;10359;53.596;22.520;2023-01-10T10:52:23;7.10;1.00
20400;DHT22;10359;53.596;22.520;2023-01-10T10:54:54;7.10;1.00
20400;DHT22;10359;53.596;22.520;2023-01-10T10:57:24;7.10;1.00
20400;DHT22;10359;53.596;22.520;2023-01-10T10:59:54;7.10;1.00
20400;DHT22;10359;53.596;22.520;2023-01-10T11:02:25;7.10;1.00
20400;DHT22;10359;53.596;22.520;2023-01-10T11:04:57;7.20;1.00
20400;DHT22;10359;53.596;22.520;2023-01-10T11:07:31;7.20;1.00
20400;DHT22;10359;53.596;22.520;2023-01-10T11:10:08;7.20;1.00
20400;DHT22;10359;53.596;22.520;2023-01-10T11:12:56;7.20;1.00
20400;DHT22;10359;53.596;22.520;2023-01-10T11:15:36;7.20;1.00
20400;DHT22;10359;53.596;22.520;2023-01-10T11:18:09;7.20;1.00
20400;DHT22;10359;53.596;22.520;2023-01-10T11:20:47;7.20;1.00
20400;DHT22;10359;53.596;22.520;2023-01-10T11:23:40;7.30;1.00
20400;DHT22;10359;53.596;22.520;2023-01-10T11:26:22;7.30;1.00
20400;DHT22;10359;53.596;22.520;2023-01-10T11:29:02;7.30;1.00
20400;DHT22;10359;53.596;22.520;2023-01-10T11:31:34;7.30;1.00
20400;DHT22;10359;53.596;22.520;2023-01-10T11:34:07;7.30;1.00
20400;DHT22;10359;53.596;22.520;2023-01-10T11:36:52;7.30;1.00
20400;DHT22;10359;53.596;22.520;2023-01-10T11:39:21;7.30;1.00
20400;DHT22;10359;53.596;22.520;2023-01-10T11:41:52;7.20;1.00
20400;DHT22;10359;53.596;22.520;2023-01-10T11:44:23;7.30;1.00
20400;DHT22;10359;53.596;22.520;2023-01-10T11:46:55;7.30;1.00
20400;DHT22;10359;53.596;22.520;2023-01-10T11:49:28;7.20;1.00
20400;DHT22;10359;53.596;22.520;2023-01-10T11:52:01;7.20;1.00
20400;DHT22;10359;53.596;22.520;2023-01-10T11:54:31;7.20;1.00
20400;DHT22;10359;53.596;22.520;2023-01-10T11:57:07;7.20;1.00
20400;DHT22;10359;53.596;22.520;2023-01-10T11:59:37;7.30;1.00
20400;DHT22;10359;53.596;22.520;2023-01-10T12:02:14;7.30;1.00
20400;DHT22;10359;53.596;22.520;2023-01-10T12:04:45;7.40;1.00
20400;DHT22;10359;53.596;22.520;2023-01-10T12:07:18;7.40;1.00
20400;DHT22;10359;53.596;22.520;2023-01-10T12:09:55;7.40;1.00
20400;DHT22;10359;53.596;22.520;2023-01-10T12:12:28;7.40;1.00
20400;DHT22;10359;53.596;22.520;2023-01-10T12:14:58;7.40;1.00
20400;DHT22;10359;53.596;22.520;2023-01-10T12:17:31;7.30;1.00
20400;DHT22;10359;53.596;22.520;2023-01-10T12:20:03;7.30;1.00
20400;DHT22;10359;53.596;22.520;2023-01-10T12:22:37;7.30;1.00
20400;DHT22;10359;53.596;22.520;2023-01-10T12:25:16;7.30;1.00
20400;DHT22;10359;53.596;22.520;2023-01-10T12:27:48;7.30;1.00
20400;DHT22;10359;53.596;22.520;2023-01-10T12:30:22;7.30;1.00
20400;DHT22;10359;53.596;22.520;2023-01-10T12:32:56;7.30;1.00
20400;DHT22;10359;53.596;22.520;2023-01-10T12:35:37;7.30;1.00
20400;DHT22;10359;53.596;22.520;2023-01-10T12:38:19;7.20;1.00
20400;DHT22;10359;53.596;22.520;2023-01-10T12:40:56;7.20;1.00
20400;DHT22;10359;53.596;22.520;2023-01-10T12:43:32;7.20;1.00
20400;DHT22;10359;53.596;22.520;2023-01-10T12:46:22;7.20;1.00
20400;DHT22;10359;53.596;22.520;2023-01-10T12:49:16;7.20;1.00
20400;DHT22;10359;53.596;22.520;2023-01-10T12:51:49;7.20;1.00
20400;DHT22;10359;53.596;22.520;2023-01-10T12:54:21;7.20;1.00
20400;DHT22;10359;53.596;22.520;2023-01-10T12:56:52;7.20;99.90
20400;DHT22;10359;53.596;22.520;2023-01-10T12:59:26;7.10;1.00
20400;DHT22;10359;53.596;22.520;2023-01-10T13:02:06;7.10;1.00
20400;DHT22;10359;53.596;22.520;2023-01-10T13:04:36;7.00;1.00
20400;DHT22;10359;53.596;22.520;2023-01-10T13:07:10;7.00;1.00
20400;DHT22;10359;53.596;22.520;2023-01-10T13:09:41;7.10;1.00
20400;DHT22;10359;53.596;22.520;2023-01-10T13:12:13;7.00;1.00
20400;DHT22;10359;53.596;22.520;2023-01-10T13:14:52;7.00;1.00
20400;DHT22;10359;53.596;22.520;2023-01-10T13:17:32;7.00;1.00
20400;DHT22;10359;53.596;22.520;2023-01-10T13:20:27;7.00;1.00
20400;DHT22;10359;53.596;22.520;2023-01-10T13:22:57;6.90;1.00
20400;DHT22;10359;53.596;22.520;2023-01-10T13:25:28;6.90;1.00
20400;DHT22;10359;53.596;22.520;2023-01-10T13:28:02;6.90;1.00
20400;DHT22;10359;53.596;22.520;2023-01-10T13:30:35;6.80;1.00
20400;DHT22;10359;53.596;22.520;2023-01-10T13:33:20;6.80;1.00
20400;DHT22;10359;53.596;22.520;2023-01-10T13:35:51;6.70;1.00
20400;DHT22;10359;53.596;22.520;2023-01-10T13:38:23;6.70;1.00
20400;DHT22;10359;53.596;22.520;2023-01-10T13:40:59;6.70;1.00
20400;DHT22;10359;53.596;22.520;2023-01-10T13:46:38;6.60;1.00
20400;DHT22;10359;53.596;22.520;2023-01-10T13:52:39;6.50;1.00
20400;DHT22;10359;53.596;22.520;2023-01-10T13:55:31;6.50;1.00
20400;DHT22;10359;53.596;22.520;2023-01-10T13:58:03;6.40;1.00
20400;DHT22;10359;53.596;22.520;2023-01-10T14:00:54;6.40;1.00
20400;DHT22;10359;53.596;22.520;2023-01-10T14:03:53;6.40;1.00
20400;DHT22;10359;53.596;22.520;2023-01-10T14:06:37;6.40;1.00
20400;DHT22;10359;53.596;22.520;2023-01-10T14:09:37;6.30;1.00
20400;DHT22;10359;53.596;22.520;2023-01-10T14:12:20;6.20;1.00
20400;DHT22;10359;53.596;22.520;2023-01-10T14:14:53;6.10;1.00
20400;DHT22;10359;53.596;22.520;2023-01-10T14:17:25;6.10;1.00
20400;DHT22;10359;53.596;22.520;2023-01-10T14:23:04;6.10;1.00
20400;DHT22;10359;53.596;22.520;2023-01-10T14:25:35;6.10;1.00
20400;DHT22;10359;53.596;22.520;2023-01-10T14:28:16;6.00;1.00
20400;DHT22;10359;53.596;22.520;2023-01-10T14:30:58;6.00;1.00
20400;DHT22;10359;53.596;22.520;2023-01-10T14:33:29;5.90;1.00
20400;DHT22;10359;53.596;22.520;2023-01-10T14:36:02;6.00;1.00
20400;DHT22;10359;53.596;22.520;2023-01-10T14:38:34;6.00;1.00
20400;DHT22;10359;53.596;22.520;2023-01-10T14:41:09;6.00;1.00
20400;DHT22;10359;53.596;22.520;2023-01-10T14:43:43;6.00;1.00
20400;DHT22;10359;53.596;22.520;2023-01-10T14:46:16;6.00;1.00
20400;DHT22;10359;53.596;22.520;2023-01-10T14:48:47;6.00;1.00
20400;DHT22;10359;53.596;22.520;2023-01-10T14:51:22;6.00;1.00
20400;DHT22;10359;53.596;22.520;2023-01-10T14:53:56;5.90;1.00
20400;DHT22;10359;53.596;22.520;2023-01-10T14:56:27;5.90;1.00
20400;DHT22;10359;53.596;22.520;2023-01-10T14:58:56;5.90;1.00
20400;DHT22;10359;53.596;22.520;2023-01-10T15:01:27;5.90;1.00
20400;DHT22;10359;53.596;22.520;2023-01-10T15:03:57;5.80;1.00
20400;DHT22;10359;53.596;22.520;2023-01-10T15:06:50;5.90;1.00
20400;DHT22;10359;53.596;22.520;2023-01-10T15:09:19;5.90;1.00
20400;DHT22;10359;53.596;22.520;2023-01-10T15:11:48;5.90;1.00
20400;DHT22;10359;53.596;22.520;2023-01-10T15:14:19;5.80;1.00
20400;DHT22;10359;53.596;22.520;2023-01-10T15:16:55;5.80;1.00
20400;DHT22;10359;53.596;22.520;2023-01-10T15:19:29;5.80;1.00
20400;DHT22;10359;53.596;22.520;2023-01-10T15:22:01;5.80;1.00
20400;DHT22;10359;53.596;22.520;2023-01-10T15:24:33;5.80;1.00
20400;DHT22;10359;53.596;22.520;2023-01-10T15:27:04;5.80;1.00
20400;DHT22;10359;53.596;22.520;2023-01-10T15:29:35;5.80;1.00
20400;DHT22;10359;53.596;22.520;2023-01-10T15:32:25;5.70;1.00
20400;DHT22;10359;53.596;22.520;2023-01-10T15:34:56;5.70;1.00
20400;DHT22;10359;53.596;22.520;2023-01-10T15:37:29;5.70;1.00
20400;DHT22;10359;53.596;22.520;2023-01-10T15:40:03;5.70;1.00
20400;DHT22;10359;53.596;22.520;2023-01-10T15:42:33;5.70;1.00
20400;DHT22;10359;53.596;22.520;2023-01-10T15:45:17;5.70;1.00
20400;DHT22;10359;53.596;22.520;2023-01-10T15:47:51;5.70;1.00
20400;DHT22;10359;53.596;22.520;2023-01-10T15:50:28;5.70;1.00
20400;DHT22;10359;53.596;22.520;2023-01-10T15:53:02;5.70;1.00
20400;DHT22;10359;53.596;22.520;2023-01-10T15:55:37;5.70;1.00
20400;DHT22;10359;53.596;22.520;2023-01-10T15:58:26;5.60;1.00
20400;DHT22;10359;53.596;22.520;2023-01-10T16:00:56;5.60;1.00
20400;DHT22;10359;53.596;22.520;2023-01-10T16:03:30;5.60;1.00
20400;DHT22;10359;53.596;22.520;2023-01-10T16:06:01;5.70;1.00
20400;DHT22;10359;53.596;22.520;2023-01-10T16:08:37;5.60;1.00
20400;DHT22;10359;53.596;22.520;2023-01-10T16:11:13;5.70;1.00
20400;DHT22;10359;53.596;22.520;2023-01-10T16:14:05;5.60;1.00
20400;DHT22;10359;53.596;22.520;2023-01-10T16:16:33;5.60;1.00
20400;DHT22;10359;53.596;22.520;2023-01-10T16:19:02;5.60;1.00
20400;DHT22;10359;53.596;22.520;2023-01-10T16:21:35;5.60;1.00
20400;DHT22;10359;53.596;22.520;2023-01-10T16:24:15;5.60;1.00
20400;DHT22;10359;53.596;22.520;2023-01-10T16:26:46;5.60;1.00
20400;DHT22;10359;53.596;22.520;2023-01-10T16:29:16;5.50;1.00
20400;DHT22;10359;53.596;22.520;2023-01-10T16:31:46;5.50;1.00
20400;DHT22;10359;53.596;22.520;2023-01-10T16:34:15;5.50;1.00
20400;DHT22;10359;53.596;22.520;2023-01-10T16:36:45;5.50;1.00
20400;DHT22;10359;53.596;22.520;2023-01-10T16:39:16;5.50;1.00
20400;DHT22;10359;53.596;22.520;2023-01-10T16:41:46;5.40;1.00
20400;DHT22;10359;53.596;22.520;2023-01-10T16:44:33;5.50;1.00